createdAt,value
2018-10-21T00:01:08.665Z,5.16
2018-10-21T00:03:37.864Z,5.11
2018-10-21T00:06:07.045Z,5.06
2018-10-21T00:08:36.268Z,5.06
2018-10-21T00:11:05.306Z,5.05
2018-10-21T00:13:34.852Z,5.01
2018-10-21T00:16:04.073Z,4.96
2018-10-21T00:18:36.875Z,4.95
2018-10-21T00:21:06.689Z,4.99
2018-10-21T00:23:36.082Z,5.13
2018-10-21T00:26:05.432Z,5.24
2018-10-21T00:28:34.511Z,5.29
2018-10-21T00:31:03.767Z,5.31
2018-10-21T00:33:33.014Z,5.31
2018-10-21T00:36:02.351Z,5.35
2018-10-21T00:38:31.462Z,5.34
2018-10-21T00:41:00.629Z,5.35
2018-10-21T00:43:29.859Z,5.35
2018-10-21T00:45:59.078Z,5.34
2018-10-21T00:48:28.394Z,5.32
2018-10-21T00:50:57.814Z,5.29
2018-10-21T00:53:27.171Z,5.22
2018-10-21T00:55:56.302Z,5.17
2018-10-21T00:58:27.581Z,5.13
2018-10-21T01:00:56.660Z,5.07
2018-10-21T01:03:26.032Z,5.03
2018-10-21T01:05:55.298Z,4.98
2018-10-21T01:08:24.566Z,4.90
2018-10-21T01:10:53.627Z,4.81
2018-10-21T01:13:23.069Z,4.73
2018-10-21T01:15:52.221Z,4.70
2018-10-21T01:18:21.551Z,4.76
2018-10-21T01:20:50.614Z,4.77
2018-10-21T01:23:19.964Z,4.76
2018-10-21T01:25:49.341Z,4.81
2018-10-21T01:28:18.441Z,4.83
2018-10-21T01:30:47.514Z,4.86
2018-10-21T01:33:17.403Z,4.93
2018-10-21T01:35:46.489Z,4.98
2018-10-21T01:38:15.643Z,4.99
2018-10-21T01:40:45.889Z,5.00
2018-10-21T01:43:16.553Z,4.95
2018-10-21T01:45:45.717Z,4.90
2018-10-21T01:48:16.066Z,4.86
2018-10-21T01:50:45.528Z,4.82
2018-10-21T01:53:15.578Z,4.82
2018-10-21T01:55:44.687Z,4.75
2018-10-21T01:58:13.775Z,4.67
2018-10-21T02:00:43.293Z,4.63
2018-10-21T02:03:12.392Z,4.61
2018-10-21T02:05:42.178Z,4.62
2018-10-21T02:08:11.414Z,4.66
2018-10-21T02:10:40.542Z,4.77
2018-10-21T02:13:09.712Z,4.78
2018-10-21T02:15:38.816Z,4.76
2018-10-21T02:18:08.075Z,4.74
2018-10-21T02:20:37.201Z,4.68
2018-10-21T02:23:06.616Z,4.66
2018-10-21T02:25:35.981Z,4.62
2018-10-21T02:28:05.138Z,4.56
2018-10-21T02:30:34.625Z,4.49
2018-10-21T02:33:04.103Z,4.46
2018-10-21T02:35:33.256Z,4.45
2018-10-21T02:38:03.582Z,4.42
2018-10-21T02:42:41.755Z,4.38
2018-10-21T02:45:14.782Z,4.32
2018-10-21T02:47:44.092Z,4.30
2018-10-21T02:50:15.809Z,4.30
2018-10-21T02:52:48.597Z,4.32
2018-10-21T02:55:18.718Z,4.36
2018-10-21T02:57:48.147Z,4.37
2018-10-21T03:00:23.784Z,4.36
2018-10-21T03:02:54.275Z,4.39
2018-10-21T03:05:25.889Z,4.46
2018-10-21T03:08:03.299Z,4.46
2018-10-21T03:13:21.661Z,4.53
2018-10-21T03:15:58.243Z,4.57
2018-10-21T03:18:41.735Z,4.61
2018-10-21T03:21:15.128Z,4.65
2018-10-21T03:23:46.997Z,4.71
2018-10-21T03:26:17.139Z,4.76
2018-10-21T03:28:46.889Z,4.73
2018-10-21T03:31:18.457Z,4.68
2018-10-21T03:33:50.742Z,4.62
2018-10-21T03:36:26.623Z,4.58
2018-10-21T03:39:08.585Z,4.55
2018-10-21T03:41:42.511Z,4.57
2018-10-21T03:44:33.078Z,4.60
2018-10-21T03:47:03.077Z,4.62
2018-10-21T03:49:42.256Z,4.63
2018-10-21T03:54:52.822Z,4.70
2018-10-21T03:57:23.272Z,4.75
2018-10-21T04:03:13.901Z,4.85
2018-10-21T04:08:25.269Z,5.08
2018-10-21T04:13:33.524Z,5.22
2018-10-21T04:16:05.648Z,5.23
2018-10-21T04:18:45.645Z,5.24
2018-10-21T04:21:23.705Z,5.26
2018-10-21T04:23:56.918Z,5.16
2018-10-21T04:40:28.876Z,4.55
2018-10-21T04:42:58.932Z,4.50
2018-10-21T04:45:28.496Z,4.52
2018-10-21T04:48:10.919Z,4.53
2018-10-21T04:50:49.154Z,4.53
2018-10-21T04:53:23.836Z,4.59
2018-10-21T04:55:56.805Z,4.60
2018-10-21T04:58:35.322Z,4.58
2018-10-21T05:01:07.825Z,4.57
2018-10-21T05:03:47.051Z,4.54
2018-10-21T05:06:24.038Z,4.47
2018-10-21T05:12:38.615Z,4.34
2018-10-21T05:15:14.362Z,4.31
2018-10-21T05:18:01.676Z,4.34
2018-10-21T05:20:35.993Z,4.36
2018-10-21T05:23:16.362Z,4.38
2018-10-21T05:26:02.650Z,4.38
2018-10-21T05:28:42.486Z,4.40
2018-10-21T05:31:19.610Z,4.43
2018-10-21T05:34:04.473Z,4.45
2018-10-21T05:37:14.341Z,4.47
2018-10-21T05:39:54.146Z,4.52
2018-10-21T05:42:25.800Z,4.56
2018-10-21T05:59:29.873Z,5.27
2018-10-21T06:01:59.286Z,5.46
2018-10-21T06:04:28.551Z,5.62
2018-10-21T06:06:57.995Z,5.76
2018-10-21T06:09:27.381Z,5.94
2018-10-21T06:11:57.611Z,6.09
2018-10-21T06:14:26.994Z,6.26
2018-10-21T06:17:06.305Z,6.38
2018-10-21T06:19:39.905Z,6.52
2018-10-21T06:22:09.163Z,6.62
2018-10-21T06:24:38.349Z,6.71
2018-10-21T06:27:07.669Z,6.80
2018-10-21T06:29:37.811Z,6.90
2018-10-21T06:32:07.032Z,7.01
2018-10-21T06:34:36.060Z,7.14
2018-10-21T06:37:05.311Z,7.25
2018-10-21T06:39:34.776Z,7.33
2018-10-21T06:42:03.922Z,7.48
2018-10-21T06:44:32.948Z,7.64
2018-10-21T06:47:01.988Z,7.79
2018-10-21T06:49:32.294Z,7.88
2018-10-21T06:52:01.200Z,7.97
2018-10-21T06:54:30.331Z,8.13
2018-10-21T06:56:59.442Z,8.25
2018-10-21T06:59:28.591Z,8.43
2018-10-21T07:01:57.523Z,8.57
2018-10-21T07:04:26.589Z,8.70
2018-10-21T07:06:55.507Z,8.87
2018-10-21T07:09:24.401Z,9.03
2018-10-21T07:11:53.381Z,9.18
2018-10-21T07:14:22.616Z,9.35
2018-10-21T07:16:51.705Z,9.59
2018-10-21T07:19:20.731Z,9.80
2018-10-21T07:21:49.787Z,9.98
2018-10-21T07:24:19.014Z,10.16
2018-10-21T07:26:48.311Z,10.35
2018-10-21T07:29:18.556Z,10.53
2018-10-21T07:31:47.591Z,10.70
2018-10-21T07:34:16.936Z,10.82
2018-10-21T07:36:45.870Z,10.85
2018-10-21T07:39:15.035Z,10.93
2018-10-21T07:41:44.081Z,11.00
2018-10-21T07:44:13.372Z,11.09
2018-10-21T07:46:42.423Z,11.13
2018-10-21T07:49:11.757Z,11.11
2018-10-21T07:51:41.101Z,11.09
2018-10-21T07:54:10.048Z,11.05
2018-10-21T07:56:39.244Z,11.01
2018-10-21T07:59:08.147Z,10.99
2018-10-21T08:01:37.065Z,10.93
2018-10-21T08:04:06.545Z,10.88
2018-10-21T08:06:46.271Z,10.84
2018-10-21T08:09:15.287Z,10.79
2018-10-21T08:11:44.338Z,10.77
2018-10-21T08:14:13.303Z,10.75
2018-10-21T08:16:42.475Z,10.74
2018-10-21T08:19:11.579Z,10.76
2018-10-21T08:21:40.826Z,10.78
2018-10-21T08:24:10.208Z,10.80
2018-10-21T08:26:39.214Z,10.84
2018-10-21T08:29:08.278Z,10.90
2018-10-21T08:31:37.473Z,10.91
2018-10-21T08:34:06.543Z,10.92
2018-10-21T08:36:35.348Z,10.83
2018-10-21T08:39:05.790Z,10.81
2018-10-21T08:41:34.985Z,10.84
2018-10-21T08:44:04.226Z,10.88
2018-10-21T08:46:33.439Z,10.90
2018-10-21T08:49:02.328Z,10.87
2018-10-21T08:51:31.211Z,10.87
2018-10-21T08:54:00.220Z,10.88
2018-10-21T08:56:29.256Z,10.88
2018-10-21T08:58:58.883Z,10.89
2018-10-21T09:01:27.847Z,10.92
2018-10-21T09:03:57.156Z,10.97
2018-10-21T09:06:26.302Z,10.96
2018-10-21T09:08:55.588Z,10.99
2018-10-21T09:11:24.607Z,11.01
2018-10-21T09:13:53.839Z,11.00
2018-10-21T09:16:22.920Z,10.99
2018-10-21T09:18:51.963Z,11.00
2018-10-21T09:21:21.073Z,11.05
2018-10-21T09:23:50.317Z,11.11
2018-10-21T09:26:19.198Z,11.14
2018-10-21T09:28:48.145Z,11.21
2018-10-21T09:31:17.171Z,11.31
2018-10-21T09:33:46.231Z,11.35
2018-10-21T09:36:15.289Z,11.40
2018-10-21T09:38:44.597Z,11.40
2018-10-21T09:41:14.744Z,11.45
2018-10-21T09:43:43.747Z,11.55
2018-10-21T09:46:12.992Z,11.65
2018-10-21T09:48:42.144Z,11.73
2018-10-21T09:51:11.204Z,11.79
2018-10-21T09:53:40.498Z,11.85
2018-10-21T09:56:09.639Z,11.95
2018-10-21T09:58:38.755Z,12.04
2018-10-21T10:01:12.826Z,12.09
2018-10-21T10:03:41.942Z,12.18
2018-10-21T10:06:11.116Z,12.23
2018-10-21T10:08:40.310Z,12.32
2018-10-21T10:11:09.455Z,12.40
2018-10-21T10:13:38.373Z,12.53
2018-10-21T10:16:08.242Z,12.63
2018-10-21T10:18:37.470Z,12.64
2018-10-21T10:21:07.054Z,12.68
2018-10-21T10:23:37.012Z,12.75
2018-10-21T10:26:06.010Z,12.82
2018-10-21T10:28:34.861Z,12.88
2018-10-21T10:31:04.103Z,12.92
2018-10-21T10:33:33.349Z,13.05
2018-10-21T10:36:02.228Z,13.14
2018-10-21T10:38:31.496Z,13.20
2018-10-21T10:41:01.403Z,13.26
2018-10-21T10:43:30.599Z,13.30
2018-10-21T10:45:59.753Z,13.45
2018-10-21T10:48:28.713Z,13.55
2018-10-21T10:50:57.685Z,13.61
2018-10-21T10:53:26.712Z,13.74
2018-10-21T10:55:55.771Z,13.83
2018-10-21T10:58:25.232Z,13.89
2018-10-21T11:00:54.203Z,14.01
2018-10-21T11:03:23.280Z,14.00
2018-10-21T11:05:52.488Z,14.02
2018-10-21T11:08:21.524Z,14.12
2018-10-21T11:10:50.493Z,14.24
2018-10-21T11:13:19.919Z,14.40
2018-10-21T11:15:49.067Z,14.45
2018-10-21T11:18:18.316Z,14.56
2018-10-21T11:20:48.380Z,14.56
2018-10-21T11:23:17.426Z,14.54
2018-10-21T11:25:46.376Z,14.50
2018-10-21T11:28:15.417Z,14.44
2018-10-21T11:30:44.605Z,14.49
2018-10-21T11:33:13.779Z,14.65
2018-10-21T11:35:43.006Z,14.73
2018-10-21T11:38:12.097Z,14.90
2018-10-21T11:40:41.047Z,14.98
2018-10-21T11:43:10.459Z,15.04
2018-10-21T11:45:39.698Z,15.03
2018-10-21T11:48:08.647Z,15.05
2018-10-21T11:50:38.790Z,15.04
2018-10-21T11:53:08.122Z,15.13
2018-10-21T11:55:40.498Z,15.23
2018-10-21T11:58:12.193Z,15.27
2018-10-21T12:00:41.425Z,15.34
2018-10-21T12:03:11.325Z,15.39
2018-10-21T12:05:41.479Z,15.44
2018-10-21T12:08:10.993Z,15.34
2018-10-21T12:10:40.192Z,15.30
2018-10-21T12:13:09.254Z,15.30
2018-10-21T12:15:38.316Z,15.50
2018-10-21T12:18:07.995Z,15.63
2018-10-21T12:20:37.158Z,15.80
2018-10-21T12:23:06.450Z,15.89
2018-10-21T12:25:35.708Z,15.98
2018-10-21T12:28:05.001Z,16.09
2018-10-21T12:30:34.374Z,16.19
2018-10-21T12:33:03.602Z,16.26
2018-10-21T12:35:32.617Z,16.32
2018-10-21T12:38:01.795Z,16.38
2018-10-21T12:40:30.971Z,16.53
2018-10-21T12:42:59.985Z,16.58
2018-10-21T12:45:29.074Z,16.63
2018-10-21T12:47:57.980Z,16.66
2018-10-21T12:50:26.917Z,16.73
2018-10-21T12:52:56.178Z,16.72
2018-10-21T12:55:25.247Z,16.83
2018-10-21T12:57:54.605Z,16.94
2018-10-21T13:00:23.941Z,17.00
2018-10-21T13:02:53.256Z,16.99
2018-10-21T13:05:22.271Z,17.03
2018-10-21T13:07:51.265Z,17.02
2018-10-21T13:10:20.203Z,17.11
2018-10-21T13:12:49.308Z,17.18
2018-10-21T13:15:18.438Z,17.34
2018-10-21T13:17:47.421Z,17.48
2018-10-21T13:20:16.382Z,17.64
2018-10-21T13:22:45.588Z,17.59
2018-10-21T13:25:15.026Z,17.68
2018-10-21T13:27:44.084Z,17.76
2018-10-21T13:30:13.098Z,18.27
2018-10-21T13:32:42.088Z,19.83
2018-10-21T13:35:11.156Z,21.93
2018-10-21T13:37:40.152Z,24.17
2018-10-21T13:40:09.294Z,24.89
2018-10-21T13:42:38.221Z,25.14
2018-10-21T13:45:07.724Z,25.11
2018-10-21T13:47:36.758Z,25.88
2018-10-21T13:50:06.746Z,26.86
2018-10-21T13:52:35.846Z,27.60
2018-10-21T13:55:04.896Z,28.90
2018-10-21T13:57:33.981Z,28.32
2018-10-21T14:00:03.044Z,26.10
2018-10-21T14:02:31.949Z,25.86
2018-10-21T14:05:01.197Z,25.75
2018-10-21T14:07:30.132Z,25.49
2018-10-21T14:09:59.110Z,25.94
2018-10-21T14:12:28.029Z,26.90
2018-10-21T14:14:57.239Z,27.65
2018-10-21T14:17:26.307Z,28.03
2018-10-21T14:19:55.577Z,28.54
2018-10-21T14:22:24.561Z,28.71
2018-10-21T14:24:53.785Z,28.14
2018-10-21T14:27:22.834Z,27.70
2018-10-21T14:29:51.817Z,28.14
2018-10-21T14:32:21.662Z,28.62
2018-10-21T14:34:50.822Z,28.93
2018-10-21T14:37:19.817Z,28.68
2018-10-21T14:39:48.889Z,28.42
2018-10-21T14:42:17.953Z,28.22
2018-10-21T14:44:46.916Z,28.18
2018-10-21T14:47:15.941Z,28.13
2018-10-21T14:49:44.871Z,27.90
2018-10-21T14:52:13.991Z,27.60
2018-10-21T14:54:43.153Z,26.88
2018-10-21T14:57:12.120Z,26.44
2018-10-21T14:59:41.147Z,26.38
2018-10-21T15:02:10.480Z,26.43
2018-10-21T15:04:39.532Z,26.10
2018-10-21T15:07:08.559Z,25.53
2018-10-21T15:09:37.517Z,25.07
2018-10-21T15:12:07.039Z,24.84
2018-10-21T15:14:35.932Z,24.15
2018-10-21T15:17:05.252Z,24.21
2018-10-21T15:19:34.356Z,24.13
2018-10-21T15:22:03.571Z,24.14
2018-10-21T15:24:32.577Z,24.22
2018-10-21T15:27:01.590Z,24.39
2018-10-21T15:29:30.653Z,24.48
2018-10-21T15:32:00.046Z,24.26
2018-10-21T15:34:29.015Z,23.44
2018-10-21T15:36:58.108Z,22.14
2018-10-21T15:39:27.367Z,20.96
2018-10-21T15:41:56.445Z,19.94
2018-10-21T15:44:26.180Z,19.13
2018-10-21T15:46:55.279Z,18.40
2018-10-21T15:49:24.323Z,17.63
2018-10-21T15:51:53.465Z,16.91
2018-10-21T15:54:22.391Z,16.28
2018-10-21T15:56:51.479Z,15.66
2018-10-21T15:59:21.344Z,15.10
2018-10-21T16:01:50.669Z,14.58
2018-10-21T16:04:19.612Z,14.10
2018-10-21T16:06:48.647Z,13.66
2018-10-21T16:09:17.881Z,13.26
2018-10-21T16:11:46.910Z,12.91
2018-10-21T16:14:16.178Z,12.55
2018-10-21T16:16:45.352Z,12.25
2018-10-21T16:19:14.769Z,11.99
2018-10-21T16:21:44.799Z,11.72
2018-10-21T16:24:13.979Z,11.46
2018-10-21T16:26:42.999Z,11.20
2018-10-21T16:29:12.154Z,10.94
2018-10-21T16:31:41.179Z,10.70
2018-10-21T16:34:10.257Z,10.50
2018-10-21T16:36:39.184Z,10.31
2018-10-21T16:39:10.337Z,10.15
2018-10-21T16:41:39.379Z,9.94
2018-10-21T16:44:08.679Z,9.77
2018-10-21T16:46:37.857Z,9.62
2018-10-21T16:49:07.116Z,9.49
2018-10-21T16:51:36.536Z,9.35
2018-10-21T16:54:05.675Z,9.23
2018-10-21T16:56:34.597Z,9.14
2018-10-21T16:59:03.700Z,9.03
2018-10-21T17:01:32.677Z,8.89
2018-10-21T17:04:01.729Z,8.81
2018-10-21T17:06:31.869Z,8.71
2018-10-21T17:09:01.343Z,8.61
2018-10-21T17:11:31.335Z,8.54
2018-10-21T17:14:00.783Z,8.47
2018-10-21T17:16:30.090Z,8.41
2018-10-21T17:18:59.201Z,8.35
2018-10-21T17:21:28.489Z,8.30
2018-10-21T17:23:57.656Z,8.30
2018-10-21T17:26:26.805Z,8.32
2018-10-21T17:28:56.783Z,8.31
2018-10-21T17:31:26.911Z,8.27
2018-10-21T17:33:56.171Z,8.22
2018-10-21T17:36:25.452Z,8.16
2018-10-21T17:38:54.625Z,8.10
2018-10-21T17:41:23.965Z,8.06
2018-10-21T17:43:53.050Z,8.02
2018-10-21T17:46:22.683Z,7.99
2018-10-21T17:48:52.395Z,7.93
2018-10-21T17:51:21.650Z,7.90
2018-10-21T17:53:50.907Z,7.87
2018-10-21T17:56:20.179Z,7.81
2018-10-21T17:58:49.331Z,7.76
2018-10-21T18:01:18.896Z,7.69
2018-10-21T18:03:48.044Z,7.62
2018-10-21T18:06:17.424Z,7.59
2018-10-21T18:08:46.787Z,7.56
2018-10-21T18:11:16.180Z,7.52
2018-10-21T18:13:45.513Z,7.50
2018-10-21T18:16:15.117Z,7.48
2018-10-21T18:18:44.488Z,7.46
2018-10-21T18:21:13.839Z,7.41
2018-10-21T18:23:43.029Z,7.38
2018-10-21T18:26:12.371Z,7.38
2018-10-21T18:28:41.649Z,7.38
2018-10-21T18:31:10.983Z,7.40
2018-10-21T18:33:40.320Z,7.44
2018-10-21T18:36:09.751Z,7.49
2018-10-21T18:38:39.073Z,7.54
2018-10-21T18:41:08.405Z,7.52
2018-10-21T18:43:37.652Z,7.52
2018-10-21T18:46:07.059Z,7.50
2018-10-21T18:48:36.366Z,7.50
2018-10-21T18:51:06.085Z,7.49
2018-10-21T18:53:35.523Z,7.43
2018-10-21T18:56:04.812Z,7.38
2018-10-21T18:58:34.150Z,7.40
2018-10-21T19:01:04.142Z,7.41
2018-10-21T19:03:33.605Z,7.40
2018-10-21T19:06:03.034Z,7.34
2018-10-21T19:08:32.148Z,7.27
2018-10-21T19:11:01.511Z,7.22
2018-10-21T19:13:30.957Z,7.21
2018-10-21T19:16:00.125Z,7.21
2018-10-21T19:18:29.409Z,7.16
2018-10-21T19:21:00.203Z,7.11
2018-10-21T19:23:29.889Z,7.10
2018-10-21T19:26:00.226Z,7.07
2018-10-21T19:28:29.649Z,7.04
2018-10-21T19:30:58.941Z,7.00
2018-10-21T19:33:28.243Z,6.96
2018-10-21T19:35:57.542Z,6.91
2018-10-21T19:38:26.855Z,6.86
2018-10-21T19:40:56.192Z,6.81
2018-10-21T19:43:25.576Z,6.77
2018-10-21T19:45:55.406Z,6.73
2018-10-21T19:48:24.718Z,6.71
2018-10-21T19:50:54.016Z,6.67
2018-10-21T19:53:23.332Z,6.64
2018-10-21T19:55:52.757Z,6.66
2018-10-21T19:58:21.890Z,6.67
2018-10-21T20:00:51.208Z,6.70
2018-10-21T20:03:20.234Z,6.81
2018-10-21T20:05:49.684Z,7.00
2018-10-21T20:08:18.929Z,7.28
2018-10-21T20:10:47.945Z,7.59
2018-10-21T20:13:17.535Z,7.87
2018-10-21T20:15:46.515Z,8.13
2018-10-21T20:18:15.668Z,8.35
2018-10-21T20:20:44.942Z,8.52
2018-10-21T20:23:14.065Z,8.65
2018-10-21T20:25:43.072Z,8.75
2018-10-21T20:28:12.223Z,8.84
2018-10-21T20:30:41.171Z,8.91
2018-10-21T20:33:10.445Z,9.01
2018-10-21T20:35:39.627Z,9.11
2018-10-21T20:38:08.739Z,9.20
2018-10-21T20:40:37.926Z,9.32
2018-10-21T20:43:07.028Z,9.43
2018-10-21T20:45:36.254Z,9.54
2018-10-21T20:48:05.447Z,9.64
2018-10-21T20:50:34.694Z,9.72
2018-10-21T20:53:03.794Z,9.82
2018-10-21T20:55:33.039Z,9.92
2018-10-21T20:58:02.215Z,10.01
2018-10-21T21:00:31.074Z,10.11
2018-10-21T21:03:00.222Z,10.20
2018-10-21T21:05:29.285Z,10.28
2018-10-21T21:07:58.570Z,10.34
2018-10-21T21:10:27.590Z,10.39
2018-10-21T21:12:57.379Z,10.42
2018-10-21T21:15:26.313Z,10.43
2018-10-21T21:17:55.622Z,10.41
2018-10-21T21:20:24.592Z,10.38
2018-10-21T21:22:53.927Z,10.35
2018-10-21T21:25:22.971Z,10.36
2018-10-21T21:27:51.992Z,10.41
2018-10-21T21:30:21.153Z,10.45
2018-10-21T21:32:50.033Z,10.47
2018-10-21T21:35:19.049Z,10.49
2018-10-21T21:37:48.191Z,10.52
2018-10-21T21:40:17.319Z,10.58
2018-10-21T21:42:46.491Z,10.66
2018-10-21T21:45:15.464Z,10.74
2018-10-21T21:47:45.708Z,10.83
2018-10-21T21:50:14.711Z,10.89
2018-10-21T21:52:43.990Z,10.93
2018-10-21T21:55:12.952Z,10.94
2018-10-21T21:57:42.105Z,10.99
2018-10-21T22:00:13.528Z,10.97
2018-10-21T22:02:42.600Z,10.97
2018-10-21T22:05:11.679Z,10.97
2018-10-21T22:07:41.167Z,11.00
2018-10-21T22:10:12.340Z,11.04
2018-10-21T22:12:41.530Z,11.04
2018-10-21T22:15:10.799Z,11.05
2018-10-21T22:17:40.559Z,11.07
2018-10-21T22:20:09.973Z,11.09
2018-10-21T22:22:38.910Z,11.11
2018-10-21T22:25:07.871Z,11.14
2018-10-21T22:27:36.858Z,11.14
2018-10-21T22:30:07.095Z,11.16
2018-10-21T22:32:36.203Z,11.17
2018-10-21T22:35:05.971Z,11.19
2018-10-21T22:37:35.200Z,11.22
2018-10-21T22:40:04.250Z,11.21
2018-10-21T22:42:33.240Z,11.19
2018-10-21T22:45:02.381Z,11.12
2018-10-21T22:47:31.248Z,11.02
2018-10-21T22:50:00.595Z,10.91
2018-10-21T22:52:29.511Z,10.81
2018-10-21T22:54:58.685Z,10.73
2018-10-21T22:57:27.501Z,10.69
2018-10-21T22:59:56.579Z,10.70
2018-10-21T23:02:25.474Z,10.73
2018-10-21T23:04:54.416Z,10.78
2018-10-21T23:07:23.331Z,10.83
2018-10-21T23:09:52.480Z,10.91
2018-10-21T23:12:21.331Z,10.98
2018-10-21T23:14:50.297Z,11.03
2018-10-21T23:17:19.254Z,11.08
2018-10-21T23:19:50.459Z,11.14
2018-10-21T23:22:19.583Z,11.20
2018-10-21T23:24:48.589Z,11.20
2018-10-21T23:27:17.637Z,11.23
2018-10-21T23:29:46.712Z,11.28
2018-10-21T23:32:15.795Z,11.33
2018-10-21T23:34:44.692Z,11.34
2018-10-21T23:37:13.531Z,11.37
2018-10-21T23:39:42.457Z,11.41
2018-10-21T23:42:11.441Z,11.41
2018-10-21T23:44:41.164Z,11.44
2018-10-21T23:47:10.106Z,11.43
2018-10-21T23:49:39.062Z,11.44
2018-10-21T23:52:08.756Z,11.46
2018-10-21T23:54:37.576Z,11.49
2018-10-21T23:57:07.606Z,11.51
2018-10-21T23:59:37.094Z,11.55
